sensor_id;sensor_type;location;lat;lon;timestamp;pressure;altitude;pressure_sealevel;temperature;humidity
67517;BME280;54359;59.124;37.910;2023-03-24T17:51:46;98385.13;;;23.69;40.57
67517;BME280;68821;59.134;37.894;2023-03-24T17:56:10;98374.19;;;23.62;37.84
67517;BME280;68821;59.134;37.894;2023-03-24T18:00:57;98381.75;;;23.54;45.77
67517;BME280;68821;59.134;37.894;2023-03-24T18:06:21;98384.78;;;23.48;39.37
67517;BME280;68821;59.134;37.894;2023-03-24T18:08:50;98389.44;;;23.44;38.86
67517;BME280;68821;59.134;37.894;2023-03-24T18:11:16;98381.13;;;23.25;39.28
67517;BME280;68821;59.134;37.894;2023-03-24T18:13:42;98397.69;;;23.25;39.73
67517;BME280;68821;59.134;37.894;2023-03-24T18:16:12;98404.53;;;23.28;38.68
67517;BME280;68821;59.134;37.894;2023-03-24T18:18:38;98403.97;;;23.23;39.01
67517;BME280;68821;59.134;37.894;2023-03-24T18:26:07;98421.78;;;20.42;39.00
67517;BME280;68821;59.134;37.894;2023-03-24T18:28:35;98432.81;;;17.81;41.60
67517;BME280;68821;59.134;37.894;2023-03-24T18:31:18;98438.78;;;15.36;44.80
67517;BME280;68821;59.134;37.894;2023-03-24T18:33:46;98445.41;;;13.74;47.02
67517;BME280;68821;59.134;37.894;2023-03-24T18:36:14;98453.91;;;12.34;49.05
67517;BME280;68821;59.134;37.894;2023-03-24T18:38:57;98458.66;;;11.17;50.72
67517;BME280;68821;59.134;37.894;2023-03-24T18:41:25;98465.03;;;10.34;52.09
67517;BME280;68821;59.134;37.894;2023-03-24T18:43:53;98466.75;;;9.56;53.60
67517;BME280;68821;59.134;37.894;2023-03-24T18:46:21;98474.09;;;8.95;54.75
67517;BME280;68821;59.134;37.894;2023-03-24T18:48:47;98473.56;;;8.42;55.11
67517;BME280;68821;59.134;37.894;2023-03-24T18:51:18;98471.22;;;7.87;56.47
67517;BME280;68821;59.134;37.894;2023-03-24T18:53:46;98491.78;;;7.61;56.66
67517;BME280;68821;59.134;37.894;2023-03-24T18:56:14;98484.97;;;7.29;57.38
67517;BME280;68821;59.134;37.894;2023-03-24T18:58:41;98491.81;;;6.99;58.27
67517;BME280;68821;59.134;37.894;2023-03-24T19:01:13;98497.72;;;6.78;58.38
67517;BME280;68821;59.134;37.894;2023-03-24T19:03:41;98488.31;;;6.56;59.13
67517;BME280;68821;59.134;37.894;2023-03-24T19:06:11;98479.75;;;6.34;59.99
67517;BME280;68821;59.134;37.894;2023-03-24T19:08:41;98490.78;;;6.27;60.27
67517;BME280;68821;59.134;37.894;2023-03-24T19:11:11;98490.72;;;6.13;60.37
67517;BME280;68821;59.134;37.894;2023-03-24T19:13:37;98501.75;;;6.01;61.06
67517;BME280;68821;59.134;37.894;2023-03-24T19:16:07;98495.66;;;5.88;61.32
67517;BME280;68821;59.134;37.894;2023-03-24T19:18:35;98500.75;;;5.80;61.50
67517;BME280;68821;59.134;37.894;2023-03-24T19:21:01;98497.31;;;5.72;61.62
67517;BME280;68821;59.134;37.894;2023-03-24T19:23:28;98501.50;;;5.65;61.83
67517;BME280;68821;59.134;37.894;2023-03-24T19:25:55;98488.72;;;5.56;62.62
67517;BME280;68821;59.134;37.894;2023-03-24T19:28:26;98490.44;;;5.62;62.41
67517;BME280;68821;59.134;37.894;2023-03-24T19:30:58;98500.63;;;5.60;62.77
67517;BME280;68821;59.134;37.894;2023-03-24T19:33:26;98489.50;;;5.51;62.87
67517;BME280;68821;59.134;37.894;2023-03-24T19:35:52;98500.59;;;5.59;63.31
67517;BME280;68821;59.134;37.894;2023-03-24T19:38:20;98494.69;;;5.63;63.01
67517;BME280;68821;59.134;37.894;2023-03-24T19:40:50;98496.38;;;5.62;63.38
67517;BME280;68821;59.134;37.894;2023-03-24T19:43:19;98481.94;;;5.61;63.50
67517;BME280;68821;59.134;37.894;2023-03-24T19:45:50;98483.66;;;5.62;63.91
67517;BME280;68821;59.134;37.894;2023-03-24T19:48:17;98481.06;;;5.58;63.72
67517;BME280;68821;59.134;37.894;2023-03-24T19:50:44;98485.34;;;5.60;64.21
67517;BME280;68821;59.134;37.894;2023-03-24T19:53:11;98487.88;;;5.59;64.46
67517;BME280;68821;59.134;37.894;2023-03-24T19:55:37;98499.72;;;5.55;63.91
67517;BME280;68821;59.134;37.894;2023-03-24T19:58:04;98493.78;;;5.53;64.43
67517;BME280;68821;59.134;37.894;2023-03-24T20:00:30;98495.47;;;5.51;64.80
67517;BME280;68821;59.134;37.894;2023-03-24T20:02:56;98492.09;;;5.54;65.42
67517;BME280;68821;59.134;37.894;2023-03-24T20:05:23;98498.06;;;5.59;64.71
67517;BME280;68821;59.134;37.894;2023-03-24T20:07:49;98493.84;;;5.64;65.25
67517;BME280;68821;59.134;37.894;2023-03-24T20:10:18;98487.06;;;5.69;65.35
67517;BME280;68821;59.134;37.894;2023-03-24T20:12:45;98481.16;;;5.75;65.32
67517;BME280;68821;59.134;37.894;2023-03-24T20:15:12;98491.41;;;5.82;64.98
67517;BME280;68821;59.134;37.894;2023-03-24T20:17:39;98485.44;;;5.82;64.98
67517;BME280;68821;59.134;37.894;2023-03-24T20:20:06;98489.72;;;5.88;64.85
67517;BME280;68821;59.134;37.894;2023-03-24T20:22:33;98493.97;;;5.87;64.93
67517;BME280;68821;59.134;37.894;2023-03-24T20:25:03;98495.69;;;5.87;65.24
67517;BME280;68821;59.134;37.894;2023-03-24T20:27:30;98491.41;;;5.84;65.25
67517;BME280;68821;59.134;37.894;2023-03-24T20:29:56;98494.81;;;5.84;65.46
67517;BME280;68821;59.134;37.894;2023-03-24T20:32:23;98493.16;;;5.91;65.63
67517;BME280;68821;59.134;37.894;2023-03-24T20:34:49;98488.88;;;5.90;65.55
67517;BME280;68821;59.134;37.894;2023-03-24T20:37:17;98471.03;;;5.87;65.32
67517;BME280;68821;59.134;37.894;2023-03-24T20:39:43;98469.34;;;5.91;66.40
67517;BME280;68821;59.134;37.894;2023-03-24T20:42:10;98487.28;;;6.01;66.08
67517;BME280;68821;59.134;37.894;2023-03-24T20:44:36;98480.47;;;6.02;66.71
67517;BME280;68821;59.134;37.894;2023-03-24T20:47:03;98484.72;;;6.00;66.71
67517;BME280;68821;59.134;37.894;2023-03-24T20:49:31;98488.13;;;6.03;66.33
67517;BME280;68821;59.134;37.894;2023-03-24T20:51:57;98484.72;;;6.04;67.08
67517;BME280;68821;59.134;37.894;2023-03-24T20:54:23;98492.38;;;6.01;66.80
67517;BME280;68821;59.134;37.894;2023-03-24T20:56:49;98487.25;;;5.98;67.43
67517;BME280;68821;59.134;37.894;2023-03-24T20:59:17;98493.22;;;5.99;67.50
67517;BME280;68821;59.134;37.894;2023-03-24T21:01:44;98487.28;;;5.97;67.80
67517;BME280;68821;59.134;37.894;2023-03-24T21:04:14;98481.25;;;5.93;67.12
67517;BME280;68821;59.134;37.894;2023-03-24T21:06:41;98485.56;;;5.96;67.55
67517;BME280;68821;59.134;37.894;2023-03-24T21:09:08;98479.63;;;5.97;67.93
67517;BME280;68821;59.134;37.894;2023-03-24T21:11:34;98476.19;;;5.96;67.67
67517;BME280;68821;59.134;37.894;2023-03-24T21:14:01;98469.41;;;5.95;67.48
67517;BME280;68821;59.134;37.894;2023-03-24T21:16:28;98473.66;;;5.99;67.87
67517;BME280;68821;59.134;37.894;2023-03-24T21:18:59;98471.97;;;5.97;67.83
67517;BME280;68821;59.134;37.894;2023-03-24T21:21:28;98473.63;;;5.96;67.60
67517;BME280;68821;59.134;37.894;2023-03-24T21:23:54;98470.25;;;5.97;68.08
67517;BME280;68821;59.134;37.894;2023-03-24T21:26:22;98469.41;;;5.97;68.50
67517;BME280;68821;59.134;37.894;2023-03-24T21:28:50;98475.34;;;5.96;68.17
67517;BME280;68821;59.134;37.894;2023-03-24T21:31:20;98454.91;;;5.93;68.77
67517;BME280;68821;59.134;37.894;2023-03-24T21:33:47;98455.72;;;5.90;68.52
67517;BME280;68821;59.134;37.894;2023-03-24T21:36:13;98456.56;;;5.88;68.76
67517;BME280;68821;59.134;37.894;2023-03-24T21:38:40;98456.56;;;5.86;68.57
67517;BME280;68821;59.134;37.894;2023-03-24T21:41:07;98458.28;;;5.82;68.56
67517;BME280;68821;59.134;37.894;2023-03-24T21:43:33;98454.84;;;5.80;68.97
67517;BME280;68821;59.134;37.894;2023-03-24T21:46:00;98460.81;;;5.81;69.24
67517;BME280;68821;59.134;37.894;2023-03-24T21:48:28;98459.94;;;5.79;69.29
67517;BME280;68821;59.134;37.894;2023-03-24T21:50:55;98471.84;;;5.81;68.79
67517;BME280;68821;59.134;37.894;2023-03-24T21:53:22;98461.66;;;5.78;68.71
67517;BME280;68821;59.134;37.894;2023-03-24T21:55:57;98460.78;;;5.78;69.24
67517;BME280;68821;59.134;37.894;2023-03-24T21:58:31;98444.63;;;5.73;69.01
67517;BME280;68821;59.134;37.894;2023-03-24T22:00:58;98453.97;;;5.75;69.53
67517;BME280;68821;59.134;37.894;2023-03-24T22:03:25;98447.16;;;5.76;69.47
67517;BME280;68821;59.134;37.894;2023-03-24T22:05:51;98446.34;;;5.78;69.53
67517;BME280;68821;59.134;37.894;2023-03-24T22:08:22;98442.97;;;5.81;69.29
67517;BME280;68821;59.134;37.894;2023-03-24T22:10:58;98444.63;;;5.82;69.66
67517;BME280;68821;59.134;37.894;2023-03-24T22:13:25;98427.63;;;5.73;69.80
67517;BME280;68821;59.134;37.894;2023-03-24T22:15:53;98431.03;;;5.80;68.92
67517;BME280;68821;59.134;37.894;2023-03-24T22:18:21;98414.88;;;5.70;68.69
67517;BME280;68821;59.134;37.894;2023-03-24T22:21:03;98421.56;;;5.53;69.44
67517;BME280;68821;59.134;37.894;2023-03-24T22:23:31;98405.31;;;5.29;69.90
67517;BME280;68821;59.134;37.894;2023-03-24T22:25:59;98413.72;;;5.17;70.04
67517;BME280;68821;59.134;37.894;2023-03-24T22:28:27;98407.66;;;5.01;70.22
67517;BME280;68821;59.134;37.894;2023-03-24T22:31:05;98397.44;;;4.95;70.70
67517;BME280;68821;59.134;37.894;2023-03-24T22:33:32;98396.50;;;4.87;70.72
67517;BME280;68821;59.134;37.894;2023-03-24T22:35:59;98397.31;;;4.80;70.88
67517;BME280;68821;59.134;37.894;2023-03-24T22:38:26;98395.56;;;4.73;71.00
67517;BME280;68821;59.134;37.894;2023-03-24T22:41:11;98397.22;;;4.66;71.46
67517;BME280;68821;59.134;37.894;2023-03-24T22:43:38;98386.97;;;4.63;71.06
67517;BME280;68821;59.134;37.894;2023-03-24T22:46:09;98385.25;;;4.59;71.25
67517;BME280;68821;59.134;37.894;2023-03-24T22:48:37;98381.00;;;4.56;71.43
67517;BME280;68821;59.134;37.894;2023-03-24T22:51:03;98363.16;;;4.52;71.61
67517;BME280;68821;59.134;37.894;2023-03-24T22:53:30;98372.53;;;4.56;71.67
67517;BME280;68821;59.134;37.894;2023-03-24T22:55:56;98369.13;;;4.57;71.75
67517;BME280;68821;59.134;37.894;2023-03-24T22:58:22;98381.03;;;4.58;71.94
67517;BME280;68821;59.134;37.894;2023-03-24T23:00:52;98359.78;;;4.56;71.63
67517;BME280;68821;59.134;37.894;2023-03-24T23:03:18;98365.78;;;4.59;71.77
67517;BME280;68821;59.134;37.894;2023-03-24T23:05:45;98361.56;;;4.64;71.90
67517;BME280;68821;59.134;37.894;2023-03-24T23:08:13;98359.91;;;4.68;71.90
67517;BME280;68821;59.134;37.894;2023-03-24T23:10:41;98367.53;;;4.70;71.77
67517;BME280;68821;59.134;37.894;2023-03-24T23:13:07;98371.81;;;4.75;71.85
67517;BME280;68821;59.134;37.894;2023-03-24T23:15:35;98375.22;;;4.77;72.08
67517;BME280;68821;59.134;37.894;2023-03-24T23:18:02;98365.91;;;4.76;71.84
67517;BME280;68821;59.134;37.894;2023-03-24T23:20:29;98334.44;;;4.68;71.89
67517;BME280;68821;59.134;37.894;2023-03-24T23:22:55;98348.13;;;4.82;71.56
67517;BME280;68821;59.134;37.894;2023-03-24T23:25:22;98351.50;;;4.83;71.89
67517;BME280;68821;59.134;37.894;2023-03-24T23:27:48;98355.75;;;4.82;72.04
67517;BME280;68821;59.134;37.894;2023-03-24T23:30:14;98352.38;;;4.82;72.14
67517;BME280;68821;59.134;37.894;2023-03-24T23:32:41;98362.56;;;4.85;71.83
67517;BME280;68821;59.134;37.894;2023-03-24T23:35:08;98361.72;;;4.86;71.89
67517;BME280;68821;59.134;37.894;2023-03-24T23:37:35;98360.88;;;4.89;72.14
67517;BME280;68821;59.134;37.894;2023-03-24T23:40:11;98356.66;;;4.94;71.98
67517;BME280;68821;59.134;37.894;2023-03-24T23:42:39;98365.19;;;4.97;71.97
67517;BME280;68821;59.134;37.894;2023-03-24T23:45:07;98351.63;;;4.98;72.02
67517;BME280;68821;59.134;37.894;2023-03-24T23:47:34;98361.84;;;5.04;72.02
67517;BME280;68821;59.134;37.894;2023-03-24T23:50:03;98363.56;;;5.07;71.85
67517;BME280;68821;59.134;37.894;2023-03-24T23:52:29;98358.47;;;5.09;71.79
67517;BME280;68821;59.134;37.894;2023-03-24T23:54:55;98352.56;;;5.11;71.87
67517;BME280;68821;59.134;37.894;2023-03-24T23:57:21;98349.16;;;5.14;71.48
67517;BME280;68821;59.134;37.894;2023-03-24T23:59:47;98352.56;;;5.16;71.72
